Time;durP1;ratioP1;P1;durP2;ratioP2;P2;SDS_P1;SDS_P2;PMS_P1;PMS_P2;Temp;Humidity;BMP_temperature;BMP_pressure;BME280_temperature;BME280_humidity;BME280_pressure;Samples;Min_cycle;Max_cycle;Signal;HPM_P1;HPM_P2
2022/09/02 00:01:23;;;;;;;8.15;2.60;;;22.90;87.60;;;;;;5032680;28;20379;-74
2022/09/02 00:03:50;;;;;;;6.68;2.80;;;22.90;87.60;;;;;;5032570;28;20033;-78
2022/09/02 00:06:16;;;;;;;9.00;2.72;;;22.90;87.60;;;;;;5032452;28;20041;-77
2022/09/02 00:08:43;;;;;;;5.60;2.25;;;22.90;87.80;;;;;;5032595;28;20053;-74
2022/09/02 00:11:13;;;;;;;5.80;2.30;;;22.90;87.50;;;;;;5032477;28;20028;-72
2022/09/02 00:13:39;;;;;;;5.00;2.70;;;22.80;87.50;;;;;;5032595;28;20025;-72
2022/09/02 00:16:05;;;;;;;10.52;2.90;;;22.80;87.60;;;;;;5032547;28;20386;-76
2022/09/02 00:18:32;;;;;;;6.85;2.42;;;22.80;87.70;;;;;;5032848;28;20487;-77
2022/09/02 00:20:58;;;;;;;8.77;2.42;;;22.80;87.60;;;;;;5031847;28;20029;-76
2022/09/02 00:23:23;;;;;;;6.38;2.50;;;22.80;87.90;;;;;;5032447;28;20021;-78
2022/09/02 00:25:49;;;;;;;4.72;2.38;;;22.80;88.10;;;;;;5032134;28;20037;-74
2022/09/02 00:28:16;;;;;;;5.88;2.13;;;22.70;87.80;;;;;;5032413;28;20096;-72
2022/09/02 00:30:45;;;;;;;6.43;2.50;;;22.70;87.70;;;;;;5032351;28;20482;-69
2022/09/02 00:33:11;;;;;;;5.90;2.70;;;22.70;88.30;;;;;;5032236;28;20025;-76
2022/09/02 00:35:37;;;;;;;7.30;2.33;;;22.70;88.00;;;;;;5032280;28;20025;-74
2022/09/02 00:38:04;;;;;;;7.97;2.53;;;22.70;88.10;;;;;;5032264;28;20056;-77
2022/09/02 00:40:31;;;;;;;6.03;2.53;;;22.60;88.20;;;;;;5033496;28;20041;-75
2022/09/02 00:42:57;;;;;;;5.93;3.00;;;22.60;88.50;;;;;;5035748;28;20204;-70
2022/09/02 00:45:23;;;;;;;7.72;2.60;;;22.60;88.60;;;;;;5031947;28;20104;-73
2022/09/02 00:47:50;;;;;;;7.43;2.67;;;22.60;88.80;;;;;;5032076;28;20390;-68
2022/09/02 00:50:21;;;;;;;5.72;2.90;;;22.60;89.00;;;;;;5032304;28;20518;-74
2022/09/02 00:52:52;;;;;;;6.95;2.88;;;22.60;88.90;;;;;;5034169;28;20061;-71
2022/09/02 00:55:25;;;;;;;8.65;2.72;;;22.50;88.60;;;;;;5036145;28;20021;-72
2022/09/02 00:57:59;;;;;;;8.75;2.67;;;22.50;88.80;;;;;;5036015;28;20493;-76
2022/09/02 01:00:33;;;;;;;6.72;2.65;;;22.40;89.10;;;;;;5035810;28;20074;-74
2022/09/02 01:03:05;;;;;;;6.57;2.67;;;22.40;88.80;;;;;;5035892;28;20063;-71
2022/09/02 01:05:35;;;;;;;10.55;2.63;;;22.30;88.90;;;;;;5033453;28;20033;-74
2022/09/02 01:08:06;;;;;;;8.40;2.72;;;22.30;89.30;;;;;;5035839;28;20378;-74
2022/09/02 01:10:33;;;;;;;6.28;2.25;;;22.30;89.30;;;;;;5035598;28;20116;-74
2022/09/02 01:13:14;;;;;;;5.03;2.50;;;22.30;89.10;;;;;;5036099;28;20047;-70
2022/09/02 01:15:43;;;;;;;6.18;2.50;;;22.30;89.40;;;;;;5035684;28;20049;-70
2022/09/02 01:18:15;;;;;;;5.13;2.28;;;22.30;88.70;;;;;;5035731;28;20121;-77
2022/09/02 01:20:41;;;;;;;10.05;2.60;;;22.30;89.00;;;;;;5017711;28;20068;-74
2022/09/02 01:23:08;;;;;;;4.03;2.38;;;22.30;88.70;;;;;;5035650;28;20486;-73
2022/09/02 01:25:35;;;;;;;6.28;2.60;;;22.40;88.80;;;;;;5035479;28;20100;-77
2022/09/02 01:28:07;;;;;;;11.38;2.60;;;22.40;88.90;;;;;;5035435;28;20049;-76
2022/09/02 01:30:35;;;;;;;7.65;2.25;;;22.40;89.00;;;;;;5035579;28;20079;-73
2022/09/02 01:33:01;;;;;;;6.28;2.85;;;22.40;88.90;;;;;;5035555;28;20025;-75
2022/09/02 01:35:27;;;;;;;6.10;2.75;;;22.30;88.60;;;;;;5035191;28;20028;-77
2022/09/02 01:37:55;;;;;;;5.88;2.58;;;22.30;89.00;;;;;;5033956;28;20041;-76
2022/09/02 01:40:22;;;;;;;8.00;2.45;;;22.30;89.10;;;;;;5035436;28;20045;-75
2022/09/02 01:43:01;;;;;;;6.05;2.35;;;22.20;89.20;;;;;;5035623;28;20055;-73
2022/09/02 01:45:28;;;;;;;6.07;2.30;;;22.20;89.40;;;;;;5035485;28;20083;-77
2022/09/02 01:47:54;;;;;;;8.05;2.78;;;22.20;89.10;;;;;;5035918;28;20025;-76
2022/09/02 01:50:21;;;;;;;6.63;2.90;;;22.20;89.10;;;;;;5035278;28;20033;-77
2022/09/02 01:52:47;;;;;;;5.53;2.38;;;22.20;89.50;;;;;;5033643;28;20382;-74
2022/09/02 01:55:13;;;;;;;7.03;2.58;;;22.10;89.00;;;;;;5035040;28;20076;-78
2022/09/02 01:57:38;;;;;;;5.90;2.40;;;22.10;89.10;;;;;;5035107;28;20045;-77
2022/09/02 02:00:07;;;;;;;4.63;2.20;;;22.00;89.30;;;;;;5035224;28;20022;-78
2022/09/02 02:02:33;;;;;;;5.40;2.50;;;22.00;89.30;;;;;;5034490;28;20053;-78
2022/09/02 02:04:59;;;;;;;4.82;2.72;;;22.00;89.40;;;;;;5034863;28;20080;-80
2022/09/02 02:07:25;;;;;;;6.78;2.70;;;22.00;89.40;;;;;;5034733;28;20052;-70
2022/09/02 02:09:50;;;;;;;7.15;3.15;;;22.00;89.50;;;;;;5037427;28;20022;-70
2022/09/02 02:12:18;;;;;;;8.98;2.75;;;22.00;89.80;;;;;;5045097;28;20047;-68
2022/09/02 02:14:43;;;;;;;6.70;3.17;;;21.90;90.00;;;;;;5045305;28;20017;-74
2022/09/02 02:17:09;;;;;;;5.72;2.70;;;21.90;90.20;;;;;;5035239;28;20057;-77
2022/09/02 02:19:35;;;;;;;8.65;2.50;;;21.90;90.10;;;;;;5035376;28;20324;-75
2022/09/02 02:22:01;;;;;;;7.07;3.08;;;21.90;90.10;;;;;;5035032;28;20025;-73
2022/09/02 02:24:27;;;;;;;7.00;2.67;;;21.90;90.20;;;;;;5034797;28;20098;-74
2022/09/02 02:26:53;;;;;;;5.97;2.28;;;21.80;90.20;;;;;;5034542;28;20383;-70
2022/09/02 02:29:19;;;;;;;5.32;2.25;;;21.80;90.30;;;;;;5034163;28;20025;-76
2022/09/02 02:31:45;;;;;;;4.72;2.25;;;21.70;90.30;;;;;;5034535;28;20028;-72
2022/09/02 02:34:11;;;;;;;6.30;2.50;;;21.70;90.30;;;;;;5034253;28;20461;-72
2022/09/02 02:36:38;;;;;;;6.18;2.53;;;21.70;90.40;;;;;;5034306;28;20036;-71
2022/09/02 02:39:06;;;;;;;7.50;2.70;;;21.70;90.30;;;;;;5034260;28;20097;-73
2022/09/02 02:41:32;;;;;;;7.63;2.30;;;21.70;90.20;;;;;;5034322;28;20045;-79
2022/09/02 02:43:58;;;;;;;6.80;2.33;;;21.70;90.20;;;;;;5034027;28;20097;-72
2022/09/02 02:46:25;;;;;;;6.90;2.17;;;21.70;90.30;;;;;;5034345;28;20053;-75
2022/09/02 02:48:50;;;;;;;6.07;2.20;;;21.70;90.20;;;;;;5034183;28;20087;-72
2022/09/02 02:51:16;;;;;;;5.60;2.10;;;21.70;90.10;;;;;;5034672;28;20450;-74
2022/09/02 02:53:42;;;;;;;6.28;2.22;;;21.70;90.10;;;;;;5036232;28;20482;-73
2022/09/02 02:56:08;;;;;;;6.15;2.08;;;21.60;90.10;;;;;;5035717;28;20542;-78
2022/09/02 02:58:35;;;;;;;4.50;2.20;;;21.70;90.10;;;;;;5034107;28;20037;-68
2022/09/02 03:01:06;;;;;;;6.25;2.10;;;21.70;90.00;;;;;;5033848;28;20167;-73
2022/09/02 03:03:35;;;;;;;6.03;2.30;;;21.60;90.20;;;;;;5034117;28;20048;-78
2022/09/02 03:06:01;;;;;;;10.55;2.38;;;21.60;90.10;;;;;;5033367;28;20053;-77
2022/09/02 03:08:27;;;;;;;6.78;2.35;;;21.60;90.00;;;;;;5032436;28;20026;-74
2022/09/02 03:10:54;;;;;;;11.63;2.63;;;21.60;90.00;;;;;;5033822;28;20048;-78
2022/09/02 03:13:22;;;;;;;4.70;2.28;;;21.60;90.00;;;;;;5033190;28;20458;-79
2022/09/02 03:15:49;;;;;;;4.93;2.08;;;21.50;90.00;;;;;;5033289;28;20029;-79
2022/09/02 03:18:15;;;;;;;5.78;2.47;;;21.50;90.00;;;;;;5033756;28;20045;-74
2022/09/02 03:20:41;;;;;;;5.78;2.35;;;21.60;90.10;;;;;;5034160;28;20018;-79
2022/09/02 03:23:07;;;;;;;3.72;2.25;;;21.50;90.00;;;;;;5035650;28;20025;-78
2022/09/02 03:25:34;;;;;;;7.05;2.50;;;21.50;90.00;;;;;;5033675;28;20021;-75
2022/09/02 03:28:01;;;;;;;5.05;2.28;;;21.50;90.00;;;;;;5034450;28;20421;-77
2022/09/02 03:30:29;;;;;;;4.60;2.20;;;21.50;90.00;;;;;;5033398;28;20085;-78
2022/09/02 03:32:58;;;;;;;6.43;2.40;;;21.50;90.10;;;;;;5033214;28;20039;-77
2022/09/02 03:35:24;;;;;;;5.75;2.65;;;21.40;90.00;;;;;;5033115;28;20025;-77
2022/09/02 03:37:51;;;;;;;4.97;2.20;;;21.40;90.10;;;;;;5033314;28;20083;-80
2022/09/02 03:40:21;;;;;;;6.57;2.30;;;21.30;90.10;;;;;;5033102;28;20026;-77
2022/09/02 03:42:47;;;;;;;5.88;2.47;;;21.30;90.30;;;;;;5033443;28;20092;-76
2022/09/02 03:45:14;;;;;;;4.90;2.20;;;21.40;90.30;;;;;;5032931;28;20053;-70
2022/09/02 03:47:49;;;;;;;5.57;2.22;;;21.40;90.10;;;;;;5015230;28;20446;-76
2022/09/02 03:50:26;;;;;;;6.47;2.35;;;21.40;90.10;;;;;;5032779;28;20033;-77
2022/09/02 03:52:53;;;;;;;6.70;3.30;;;21.40;90.00;;;;;;5032916;28;20029;-74
2022/09/02 03:55:19;;;;;;;6.78;3.60;;;21.40;90.20;;;;;;5032510;28;20033;-69
2022/09/02 03:57:47;;;;;;;5.10;2.25;;;21.30;90.10;;;;;;5032724;28;20057;-72
2022/09/02 04:00:15;;;;;;;5.45;2.30;;;21.40;90.10;;;;;;5032905;28;20095;-77
2022/09/02 04:02:41;;;;;;;8.45;2.60;;;21.30;90.00;;;;;;5032616;28;20367;-75
2022/09/02 04:05:07;;;;;;;7.68;2.55;;;21.30;90.00;;;;;;5031060;28;20105;-72
2022/09/02 04:07:33;;;;;;;6.60;2.78;;;21.40;90.10;;;;;;5032798;28;20409;-75
2022/09/02 04:10:00;;;;;;;5.85;2.42;;;21.30;90.00;;;;;;5032562;28;20192;-76
2022/09/02 04:12:26;;;;;;;5.70;2.85;;;21.30;90.00;;;;;;5032578;28;20022;-75
2022/09/02 04:14:53;;;;;;;4.72;2.38;;;21.40;89.90;;;;;;5032301;28;20041;-76
2022/09/02 04:17:19;;;;;;;6.75;2.30;;;21.40;89.80;;;;;;5032581;28;20033;-76
2022/09/02 04:19:45;;;;;;;7.32;2.22;;;21.40;89.80;;;;;;5032523;28;20025;-77
2022/09/02 04:22:10;;;;;;;6.00;2.28;;;21.40;89.80;;;;;;5031149;28;20398;-73
2022/09/02 04:24:37;;;;;;;11.77;2.63;;;21.30;89.60;;;;;;5032313;28;20061;-72
2022/09/02 04:27:03;;;;;;;3.15;1.95;;;21.30;89.70;;;;;;5032233;28;20072;-72
2022/09/02 04:29:30;;;;;;;6.05;2.25;;;21.30;90.00;;;;;;5032194;28;20026;-77
2022/09/02 04:31:57;;;;;;;7.35;2.30;;;21.20;89.80;;;;;;5032837;28;20156;-76
2022/09/02 04:34:22;;;;;;;6.72;2.10;;;21.30;90.00;;;;;;5032628;28;20064;-79
2022/09/02 04:36:48;;;;;;;5.93;2.25;;;21.20;89.90;;;;;;5032468;28;20057;-77
2022/09/02 04:39:14;;;;;;;6.53;1.98;;;21.20;90.00;;;;;;5032205;28;20195;-73
2022/09/02 04:41:41;;;;;;;8.43;2.58;;;21.20;90.10;;;;;;5030691;28;20021;-72
2022/09/02 04:44:08;;;;;;;4.03;2.58;;;21.20;89.80;;;;;;5032205;28;20366;-78
2022/09/02 04:46:34;;;;;;;6.43;2.50;;;21.30;89.60;;;;;;5032102;28;20033;-71
2022/09/02 04:49:01;;;;;;;6.97;2.50;;;21.30;89.50;;;;;;5032148;28;20097;-74
2022/09/02 04:51:28;;;;;;;7.10;2.90;;;21.30;89.20;;;;;;5032070;28;20123;-79
2022/09/02 04:53:54;;;;;;;11.98;2.53;;;21.30;89.70;;;;;;5032125;28;20025;-77
2022/09/02 04:56:24;;;;;;;8.75;2.33;;;21.30;89.00;;;;;;5030829;28;20029;-76
2022/09/02 04:58:51;;;;;;;5.38;1.98;;;21.20;88.80;;;;;;5031855;28;20034;-76
2022/09/02 05:01:26;;;;;;;8.00;2.00;;;21.20;88.90;;;;;;5031999;28;20021;-76
2022/09/02 05:03:52;;;;;;;7.47;2.78;;;21.20;89.70;;;;;;5032164;28;20036;-75
2022/09/02 05:06:21;;;;;;;5.05;2.40;;;21.20;89.10;;;;;;5032072;28;20044;-76
2022/09/02 05:08:47;;;;;;;7.18;2.40;;;21.20;89.10;;;;;;5032283;28;20382;-77
2022/09/02 05:11:18;;;;;;;5.43;2.53;;;21.20;89.00;;;;;;5031978;28;20033;-70
2022/09/02 05:13:50;;;;;;;7.88;3.25;;;21.20;88.80;;;;;;5038243;28;20052;-70
2022/09/02 05:16:22;;;;;;;8.60;2.10;;;21.20;88.70;;;;;;5035129;28;20201;-72
2022/09/02 05:18:49;;;;;;;4.70;2.40;;;21.20;88.30;;;;;;5032139;28;20037;-72
2022/09/02 05:21:15;;;;;;;7.78;2.10;;;21.30;88.20;;;;;;5032561;28;20025;-72
2022/09/02 05:23:41;;;;;;;7.55;2.53;;;21.30;87.70;;;;;;5038454;28;20114;-71
2022/09/02 05:26:09;;;;;;;8.23;2.58;;;21.40;87.80;;;;;;5040869;28;20045;-76
2022/09/02 05:28:35;;;;;;;9.02;2.22;;;21.40;87.40;;;;;;5036341;28;20510;-75
2022/09/02 05:31:09;;;;;;;4.65;1.95;;;21.40;87.10;;;;;;5031999;28;20084;-79
2022/09/02 05:33:37;;;;;;;5.43;2.15;;;21.50;86.50;;;;;;5031848;28;20447;-77
2022/09/02 05:36:04;;;;;;;8.20;1.90;;;21.40;86.30;;;;;;5032073;28;20037;-77
2022/09/02 05:38:31;;;;;;;4.15;1.83;;;21.30;86.40;;;;;;5034540;28;20103;-76
2022/09/02 05:40:58;;;;;;;4.70;1.85;;;21.30;86.50;;;;;;5035549;28;20056;-77
2022/09/02 05:43:24;;;;;;;8.35;2.90;;;21.40;86.30;;;;;;5035586;28;20055;-80
2022/09/02 05:45:50;;;;;;;7.25;2.10;;;21.40;86.00;;;;;;5036014;28;20109;-76
2022/09/02 05:51:04;;;;;;;7.05;2.10;;;21.60;86.20;;;;;;5037602;28;20028;-75
2022/09/02 05:53:31;;;;;;;6.68;2.08;;;21.80;84.80;;;;;;5035610;28;20030;-77
2022/09/02 05:55:57;;;;;;;5.55;1.80;;;22.00;83.90;;;;;;5035543;28;20093;-79
2022/09/02 05:58:23;;;;;;;6.70;2.17;;;22.20;83.00;;;;;;5035714;28;20049;-80
2022/09/02 06:00:50;;;;;;;7.97;1.95;;;22.50;82.20;;;;;;5034955;28;20026;-80
2022/09/02 06:03:18;;;;;;;7.47;2.20;;;22.70;81.20;;;;;;5035426;28;20087;-79
2022/09/02 06:05:54;;;;;;;10.50;2.30;;;22.90;80.30;;;;;;5034800;28;20029;-79
2022/09/02 06:08:20;;;;;;;12.68;2.22;;;23.10;79.50;;;;;;5034078;28;20388;-81
2022/09/02 06:10:45;;;;;;;4.72;1.60;;;23.20;78.70;;;;;;5035176;28;20108;-75
2022/09/02 06:13:14;;;;;;;4.75;1.75;;;23.30;78.10;;;;;;5034188;28;20041;-77
2022/09/02 06:15:43;;;;;;;4.55;1.90;;;23.50;78.20;;;;;;5035191;28;20025;-78
2022/09/02 06:18:09;;;;;;;5.65;1.92;;;23.70;77.50;;;;;;5035294;28;20029;-72
2022/09/02 06:20:40;;;;;;;6.55;1.80;;;23.80;75.90;;;;;;5034015;28;20116;-74
2022/09/02 06:23:05;;;;;;;6.30;1.67;;;23.90;75.00;;;;;;5035056;28;20030;-77
2022/09/02 06:25:31;;;;;;;9.32;1.80;;;24.00;74.80;;;;;;5034624;28;20033;-74
2022/09/02 06:28:01;;;;;;;5.20;1.50;;;24.20;74.30;;;;;;5034577;28;20040;-74
2022/09/02 06:30:27;;;;;;;7.97;1.60;;;24.30;73.80;;;;;;5034805;28;20048;-77
2022/09/02 06:32:54;;;;;;;11.80;1.88;;;24.20;73.60;;;;;;5016946;28;20069;-73
2022/09/02 06:35:21;;;;;;;14.77;1.80;;;24.30;73.10;;;;;;5034532;28;20029;-76
2022/09/02 06:37:49;;;;;;;7.43;1.80;;;24.40;72.90;;;;;;5034423;28;20120;-77
2022/09/02 06:40:18;;;;;;;5.15;1.60;;;24.60;72.60;;;;;;5033206;28;20328;-75
2022/09/02 06:42:44;;;;;;;8.30;2.38;;;24.60;71.80;;;;;;5034823;28;20112;-77
2022/09/02 06:45:13;;;;;;;7.45;2.10;;;24.70;71.10;;;;;;5035485;28;20128;-77
2022/09/02 06:47:40;;;;;;;5.32;1.73;;;24.80;70.10;;;;;;5033980;28;20030;-78
2022/09/02 06:50:06;;;;;;;4.05;1.75;;;24.70;70.90;;;;;;5033898;28;20029;-77
2022/09/02 06:52:32;;;;;;;5.35;1.92;;;24.80;70.20;;;;;;5034030;28;20121;-77
2022/09/02 06:54:58;;;;;;;4.85;2.22;;;24.90;70.30;;;;;;5033694;28;20038;-74
2022/09/02 06:57:27;;;;;;;4.55;1.52;;;25.00;70.40;;;;;;5034266;28;20037;-78
2022/09/02 06:59:53;;;;;;;2.00;1.23;;;25.10;70.00;;;;;;5034048;28;20022;-73
2022/09/02 07:02:19;;;;;;;6.18;1.80;;;25.30;69.50;;;;;;5032565;28;20033;-77
2022/09/02 07:07:31;;;;;;;5.57;1.92;;;25.60;68.30;;;;;;5034325;28;20192;-75
2022/09/02 07:09:56;;;;;;;3.35;1.55;;;25.50;68.00;;;;;;5034010;28;20534;-78
2022/09/02 07:12:26;;;;;;;5.10;1.73;;;25.50;67.80;;;;;;5033854;28;20056;-75
2022/09/02 07:14:53;;;;;;;2.63;1.27;;;25.60;67.80;;;;;;5032206;28;20083;-76
2022/09/02 07:17:20;;;;;;;5.40;1.55;;;25.50;68.00;;;;;;5032687;28;20033;-74
2022/09/02 07:19:47;;;;;;;6.50;2.00;;;25.40;67.70;;;;;;5034344;28;20053;-79
2022/09/02 07:22:13;;;;;;;3.28;1.40;;;25.50;67.90;;;;;;5034207;28;20025;-73
2022/09/02 07:24:39;;;;;;;6.38;1.48;;;25.50;67.20;;;;;;5033736;28;20033;-74
2022/09/02 07:27:05;;;;;;;10.13;1.70;;;25.50;66.90;;;;;;5034208;28;20463;-77
2022/09/02 07:29:32;;;;;;;7.60;1.67;;;25.60;67.00;;;;;;5039371;28;20025;-71
2022/09/02 07:31:58;;;;;;;6.20;1.60;;;25.60;66.80;;;;;;5046108;28;20026;-73
2022/09/02 07:34:24;;;;;;;8.63;1.90;;;25.60;67.10;;;;;;5044302;28;20120;-78
2022/09/02 07:36:51;;;;;;;9.35;2.00;;;25.70;66.70;;;;;;5033986;28;20021;-78
2022/09/02 07:39:18;;;;;;;9.00;2.00;;;25.70;66.40;;;;;;5032456;28;20022;-78
2022/09/02 07:41:47;;;;;;;9.77;2.17;;;25.70;66.70;;;;;;5033641;28;20030;-77
2022/09/02 07:44:14;;;;;;;4.90;1.70;;;25.70;66.70;;;;;;5033150;28;20096;-78
2022/09/02 07:46:40;;;;;;;6.28;1.73;;;25.70;66.70;;;;;;5033296;28;20029;-71
2022/09/02 07:49:10;;;;;;;4.75;1.70;;;25.70;66.60;;;;;;5032105;28;20033;-70
2022/09/02 07:51:39;;;;;;;7.88;1.88;;;25.60;65.70;;;;;;5033137;28;20154;-74
2022/09/02 07:54:07;;;;;;;3.45;1.33;;;25.60;66.20;;;;;;5032966;28;20033;-74
2022/09/02 07:56:33;;;;;;;4.78;1.75;;;25.50;66.10;;;;;;5032845;28;20027;-72
2022/09/02 07:58:59;;;;;;;3.78;1.80;;;25.60;66.50;;;;;;5032691;28;20037;-74
2022/09/02 08:01:25;;;;;;;8.85;1.95;;;25.60;66.10;;;;;;5014800;28;20514;-76
2022/09/02 08:03:51;;;;;;;5.90;1.70;;;25.70;66.40;;;;;;5032590;28;20083;-73
2022/09/02 08:06:19;;;;;;;8.95;1.52;;;25.80;66.30;;;;;;5032650;28;20445;-79
2022/09/02 08:08:45;;;;;;;6.65;1.45;;;25.80;65.60;;;;;;5032486;28;20071;-76
2022/09/02 08:11:12;;;;;;;4.82;1.42;;;25.90;65.80;;;;;;5032639;28;20112;-69
2022/09/02 08:13:39;;;;;;;2.97;1.60;;;25.70;65.10;;;;;;5032641;28;20061;-75
2022/09/02 08:16:05;;;;;;;5.38;1.60;;;25.60;65.80;;;;;;5032566;28;20050;-70
2022/09/02 08:18:32;;;;;;;5.53;1.70;;;25.60;65.90;;;;;;5032531;28;20416;-73
2022/09/02 08:20:58;;;;;;;6.00;1.75;;;25.60;66.10;;;;;;5032503;28;20030;-75
2022/09/02 08:23:23;;;;;;;7.18;2.13;;;25.50;65.80;;;;;;5032595;28;20025;-70
2022/09/02 08:25:49;;;;;;;6.07;1.70;;;25.40;66.00;;;;;;5033313;28;20043;-75
2022/09/02 08:28:15;;;;;;;4.50;1.70;;;25.40;66.00;;;;;;5031072;28;20032;-76
2022/09/02 08:30:41;;;;;;;8.80;1.50;;;25.40;66.00;;;;;;5032643;28;20478;-70
2022/09/02 08:33:06;;;;;;;3.13;1.73;;;25.40;66.00;;;;;;5032505;28;20582;-73
2022/09/02 08:35:33;;;;;;;2.47;1.25;;;25.40;66.30;;;;;;5032093;28;20451;-69
2022/09/02 08:37:59;;;;;;;4.13;1.73;;;25.50;66.10;;;;;;5030956;28;20191;-73
2022/09/02 08:40:35;;;;;;;4.40;1.50;;;25.50;66.00;;;;;;5032651;28;20108;-76
2022/09/02 08:43:20;;;;;;;5.60;1.60;;;25.60;65.80;;;;;;5032120;28;20025;-70
2022/09/02 08:45:46;;;;;;;7.40;1.55;;;25.60;65.80;;;;;;5032018;28;20021;-76
2022/09/02 08:48:20;;;;;;;6.25;1.67;;;25.60;65.90;;;;;;5032267;28;20026;-80
2022/09/02 08:50:48;;;;;;;5.20;2.25;;;25.50;65.60;;;;;;5032564;28;20475;-81
2022/09/02 08:53:50;;;;;;;4.38;1.30;;;25.40;65.60;;;;;;5032729;28;20040;-78
2022/09/02 08:56:17;;;;;;;5.07;1.58;;;25.40;65.80;;;;;;5001213;28;20038;-76
2022/09/02 08:58:48;;;;;;;4.97;1.45;;;25.40;65.90;;;;;;5032258;28;20033;-76
2022/09/02 09:01:25;;;;;;;3.63;1.30;;;25.50;65.50;;;;;;5032388;28;20026;-79
2022/09/02 09:03:56;;;;;;;6.57;1.80;;;25.50;65.10;;;;;;5031916;28;20383;-78
2022/09/02 09:06:28;;;;;;;3.75;1.35;;;25.50;64.90;;;;;;5032157;28;20056;-76
2022/09/02 09:09:09;;;;;;;5.00;1.50;;;25.60;65.20;;;;;;5032459;28;20056;-80
2022/09/02 09:12:11;;;;;;;6.78;1.60;;;25.70;65.00;;;;;;5032067;28;20155;-69
2022/09/02 09:14:54;;;;;;;5.70;1.70;;;25.70;64.60;;;;;;5002037;28;20042;-74
2022/09/02 09:17:31;;;;;;;4.43;1.50;;;25.80;64.70;;;;;;5035748;28;20069;-69
2022/09/02 09:20:02;;;;;;;5.55;1.42;;;25.80;64.50;;;;;;5035565;28;20342;-70
2022/09/02 09:22:36;;;;;;;11.20;1.80;;;25.90;64.20;;;;;;5035531;28;20334;-66
2022/09/02 09:25:10;;;;;;;3.67;1.10;;;25.90;63.90;;;;;;5035338;28;20036;-74
2022/09/02 09:27:36;;;;;;;4.60;1.30;;;26.00;63.90;;;;;;5017788;28;20029;-74
2022/09/02 09:30:02;;;;;;;10.65;1.60;;;26.00;63.40;;;;;;5035379;28;20426;-69
2022/09/02 09:32:41;;;;;;;5.43;1.70;;;26.00;63.20;;;;;;5035545;28;20068;-76
2022/09/02 09:35:17;;;;;;;4.10;1.42;;;26.10;63.00;;;;;;5035383;28;20029;-76
2022/09/02 09:37:51;;;;;;;4.65;1.50;;;26.10;62.70;;;;;;5035431;28;20121;-80
2022/09/02 09:40:27;;;;;;;3.90;1.08;;;26.20;62.30;;;;;;5035271;28;20104;-74
2022/09/02 09:43:00;;;;;;;3.10;1.20;;;26.30;62.20;;;;;;5035032;28;20017;-78
2022/09/02 09:45:33;;;;;;;3.78;1.10;;;26.40;61.50;;;;;;5034986;28;20037;-73
2022/09/02 09:48:17;;;;;;;3.60;1.20;;;26.50;61.10;;;;;;5035172;28;20059;-74
2022/09/02 09:50:45;;;;;;;4.57;1.80;;;26.50;61.30;;;;;;5035025;28;20482;-70
2022/09/02 09:53:34;;;;;;;4.07;1.67;;;26.50;60.90;;;;;;5034912;28;20029;-70
2022/09/02 09:56:28;;;;;;;7.30;1.20;;;26.60;61.00;;;;;;5035848;28;20152;-71
2022/09/02 09:58:53;;;;;;;5.15;1.65;;;26.60;60.50;;;;;;5033577;28;20435;-71
2022/09/02 10:01:28;;;;;;;6.93;1.80;;;26.60;60.40;;;;;;5035140;28;20032;-69
2022/09/02 10:04:09;;;;;;;7.32;1.70;;;26.70;60.10;;;;;;5034714;28;20049;-76
2022/09/02 10:06:36;;;;;;;5.90;1.70;;;26.80;59.90;;;;;;5034608;28;20120;-71
2022/09/02 10:09:06;;;;;;;6.03;1.40;;;26.90;59.70;;;;;;5034746;28;20036;-74
2022/09/02 10:11:36;;;;;;;3.95;1.23;;;27.00;59.00;;;;;;5034515;28;20033;-74
2022/09/02 10:14:10;;;;;;;3.92;1.42;;;27.10;58.30;;;;;;5034579;28;20025;-71
2022/09/02 10:16:51;;;;;;;5.85;1.40;;;27.10;58.20;;;;;;5035201;28;20029;-75
2022/09/02 10:19:25;;;;;;;8.05;2.50;;;27.20;57.90;;;;;;5034997;28;20128;-76
2022/09/02 10:22:09;;;;;;;6.80;2.05;;;27.40;58.00;;;;;;5034892;28;20018;-73
2022/09/02 10:24:42;;;;;;;3.58;1.42;;;27.50;57.90;;;;;;5034705;28;20051;-76
2022/09/02 10:27:14;;;;;;;9.15;1.90;;;27.60;56.90;;;;;;5035062;28;20037;-79
2022/09/02 10:30:05;;;;;;;3.15;1.50;;;27.60;56.90;;;;;;5033342;28;20033;-82
2022/09/02 10:33:01;;;;;;;3.80;1.80;;;27.80;56.40;;;;;;5034647;28;20026;-71
2022/09/02 10:35:44;;;;;;;2.78;1.52;;;27.90;55.10;;;;;;5033187;28;20034;-69
2022/09/02 10:38:41;;;;;;;7.28;1.50;;;27.90;55.40;;;;;;5034483;28;20079;-79
2022/09/02 10:41:30;;;;;;;6.05;1.92;;;28.00;54.40;;;;;;5034563;28;20446;-71
2022/09/02 10:44:16;;;;;;;3.38;1.23;;;28.20;53.60;;;;;;5034620;28;20026;-77
2022/09/02 10:47:00;;;;;;;6.05;1.55;;;28.20;53.10;;;;;;5034537;28;20028;-72
2022/09/02 10:49:37;;;;;;;2.80;1.27;;;28.20;52.90;;;;;;5034935;28;20037;-78
2022/09/02 10:52:29;;;;;;;5.43;1.50;;;28.30;53.10;;;;;;5034656;28;20037;-78
2022/09/02 10:55:20;;;;;;;4.88;1.50;;;28.40;52.50;;;;;;5007766;28;20033;-73
2022/09/02 10:57:54;;;;;;;6.43;1.77;;;28.60;53.90;;;;;;5034323;28;20042;-76
2022/09/02 11:00:21;;;;;;;4.53;1.17;;;28.70;53.60;;;;;;5034933;28;20069;-74
2022/09/02 11:02:59;;;;;;;7.47;1.50;;;28.80;52.80;;;;;;5035054;28;20465;-72
2022/09/02 11:05:32;;;;;;;2.90;1.25;;;28.90;50.80;;;;;;5034208;28;20026;-78
2022/09/02 11:08:33;;;;;;;7.13;1.50;;;29.00;52.50;;;;;;5034979;28;20037;-78
2022/09/02 11:11:11;;;;;;;4.70;1.23;;;29.10;50.90;;;;;;4973289;28;20028;-79
2022/09/02 11:13:48;;;;;;;2.78;1.27;;;29.20;51.10;;;;;;5026955;28;20033;-81
2022/09/02 11:16:36;;;;;;;2.17;1.20;;;29.30;49.00;;;;;;5034539;28;20022;-79
2022/09/02 11:19:10;;;;;;;2.50;1.10;;;29.20;48.50;;;;;;5034329;28;20045;-80
2022/09/02 11:21:44;;;;;;;3.45;1.20;;;29.30;48.50;;;;;;5033731;28;20047;-72
2022/09/02 11:24:15;;;;;;;4.90;1.50;;;29.30;49.50;;;;;;5034078;28;20037;-78
2022/09/02 11:26:54;;;;;;;3.60;1.52;;;29.30;48.70;;;;;;5033695;28;20025;-78
2022/09/02 11:29:28;;;;;;;5.05;1.55;;;29.30;47.50;;;;;;5033650;28;20026;-77
2022/09/02 11:32:26;;;;;;;3.30;1.40;;;29.40;48.90;;;;;;5033818;28;20025;-76
2022/09/02 11:34:57;;;;;;;6.68;1.45;;;29.50;47.50;;;;;;5024777;28;20042;-77
2022/09/02 11:37:44;;;;;;;3.22;1.30;;;29.60;49.00;;;;;;5033720;28;20043;-72
2022/09/02 11:40:27;;;;;;;1.75;1.15;;;29.70;47.00;;;;;;5033826;28;20163;-69
2022/09/02 11:43:15;;;;;;;;;;;29.80;46.80;;;;;;5034065;28;20386;-77
2022/09/02 11:45:47;;;;;;;4.20;1.10;;;29.80;45.10;;;;;;5033408;28;19909;-73
2022/09/02 11:48:28;;;;;;;3.75;1.50;;;29.80;46.50;;;;;;5033465;28;20080;-72
2022/09/02 11:51:24;;;;;;;4.18;1.52;;;29.90;46.20;;;;;;5033622;28;20029;-68
2022/09/02 11:53:51;;;;;;;3.92;1.17;;;29.90;46.00;;;;;;5033746;28;20060;-80
2022/09/02 11:56:39;;;;;;;5.72;1.45;;;29.80;47.20;;;;;;5034292;28;20082;-78
2022/09/02 11:59:06;;;;;;;2.45;1.13;;;29.80;46.50;;;;;;5035050;28;20030;-73
2022/09/02 12:01:46;;;;;;;2.60;1.25;;;29.80;47.00;;;;;;5034335;28;20045;-67
2022/09/02 12:04:11;;;;;;;1.85;1.10;;;29.90;45.60;;;;;;5033857;28;20470;-66
2022/09/02 12:07:09;;;;;;;2.63;1.25;;;29.90;46.30;;;;;;5033594;28;20060;-69
2022/09/02 12:09:46;;;;;;;4.05;1.20;;;30.00;45.70;;;;;;5033570;28;20475;-72
2022/09/02 12:12:37;;;;;;;3.25;1.15;;;30.10;45.50;;;;;;5033791;28;20523;-74
2022/09/02 12:15:10;;;;;;;3.58;1.30;;;30.10;45.50;;;;;;5033263;28;20553;-68
2022/09/02 12:17:38;;;;;;;15.70;11.77;;;30.20;45.80;;;;;;5032723;28;20104;-69
2022/09/02 12:20:11;;;;;;;3.40;1.42;;;30.10;45.80;;;;;;5033114;28;20017;-68
2022/09/02 12:22:39;;;;;;;5.05;1.92;;;30.20;46.90;;;;;;5033162;28;20022;-66
2022/09/02 12:25:25;;;;;;;4.82;1.48;;;30.30;46.80;;;;;;5032845;28;20027;-69
2022/09/02 12:28:25;;;;;;;5.72;1.48;;;30.40;46.60;;;;;;5031922;28;20128;-66
2022/09/02 12:31:29;;;;;;;3.58;1.30;;;30.50;45.40;;;;;;5032912;28;20037;-68
2022/09/02 12:33:50;;;;;;;5.22;1.50;;;30.60;45.50;;;;;;5029374;28;20120;-72
2022/09/02 12:36:41;;;;;;;3.35;1.42;;;30.80;46.50;;;;;;5032705;28;20048;-67
2022/09/02 12:39:22;;;;;;;5.72;3.63;;;30.90;44.90;;;;;;5032343;28;20053;-67
2022/09/02 12:42:09;;;;;;;3.95;1.02;;;31.00;45.90;;;;;;5032615;28;20438;-67
2022/09/02 12:44:47;;;;;;;2.88;1.40;;;31.10;44.40;;;;;;5032815;28;20032;-69
2022/09/02 12:47:18;;;;;;;5.70;1.27;;;31.10;44.20;;;;;;5035145;28;20091;-70
2022/09/02 12:50:35;;;;;;;3.90;1.20;;;31.10;44.80;;;;;;5036732;28;20018;-69
2022/09/02 12:53:25;;;;;;;3.85;1.50;;;31.00;43.60;;;;;;5015136;28;20041;-67
2022/09/02 12:56:03;;;;;;;3.35;1.50;;;31.10;43.80;;;;;;5037946;28;20091;-65
2022/09/02 12:58:44;;;;;;;2.58;1.05;;;31.20;43.80;;;;;;5036825;28;20485;-67
2022/09/02 13:01:31;;;;;;;4.53;1.30;;;31.30;44.40;;;;;;5036588;28;20036;-67
2022/09/02 13:04:08;;;;;;;3.33;1.20;;;31.30;43.20;;;;;;5036622;28;20462;-68
2022/09/02 13:07:08;;;;;;;2.95;1.35;;;31.30;42.80;;;;;;5036707;28;20060;-66
2022/09/02 13:09:54;;;;;;;4.43;1.48;;;31.30;42.70;;;;;;5036474;28;20036;-73
2022/09/02 13:13:09;;;;;;;3.35;1.17;;;31.50;44.00;;;;;;5036980;28;20071;-76